Time;durP1;ratioP1;P1;durP2;ratioP2;P2;SDS_P1;SDS_P2;PMS_P1;PMS_P2;Temp;Humidity;BMP_temperature;BMP_pressure;BME280_temperature;BME280_humidity;BME280_pressure;Samples;Min_cycle;Max_cycle;Signal;HPM_P1;HPM_P2
2021/11/22 00:00:00;;;;;;;125.22;58.25;;;3.70;99.90;;;;;;5034557;28;20190;-90
2021/11/22 00:02:25;;;;;;;107.90;56.27;;;3.60;99.90;;;;;;5016783;28;20213;-90
2021/11/22 00:04:52;;;;;;;109.33;55.20;;;3.60;99.90;;;;;;5017478;28;20187;-91
2021/11/22 00:07:18;;;;;;;105.80;56.58;;;3.60;99.90;;;;;;5016747;28;20202;-91
2021/11/22 00:09:44;;;;;;;101.13;51.87;;;3.50;99.90;;;;;;5034089;28;20582;-90
2021/11/22 00:12:11;;;;;;;91.85;50.45;;;3.50;99.90;;;;;;5033905;28;20646;-90
2021/11/22 00:14:36;;;;;;;82.22;48.60;;;3.40;99.90;;;;;;5034167;28;20532;-90
2021/11/22 00:17:03;;;;;;;87.60;50.50;;;3.40;99.90;;;;;;5016970;28;20201;-91
2021/11/22 00:19:29;;;;;;;84.88;48.13;;;3.40;99.90;;;;;;5038432;28;20577;-90
2021/11/22 00:21:55;;;;;;;80.90;47.38;;;3.40;99.90;;;;;;5022323;28;20198;-89
2021/11/22 00:24:21;;;;;;;83.90;48.47;;;3.40;99.90;;;;;;5029872;28;20234;-90
2021/11/22 00:26:47;;;;;;;92.38;49.40;;;3.40;99.90;;;;;;5042390;28;20395;-91
2021/11/22 00:29:13;;;;;;;92.57;52.10;;;3.40;99.90;;;;;;5037209;28;20221;-90
2021/11/22 00:31:41;;;;;;;89.93;49.37;;;3.40;99.90;;;;;;5019713;28;20198;-90
2021/11/22 00:34:07;;;;;;;84.18;48.88;;;3.40;99.90;;;;;;5021379;28;20194;-91
2021/11/22 00:36:33;;;;;;;90.28;50.03;;;3.50;99.90;;;;;;5020145;28;20194;-90
2021/11/22 00:38:59;;;;;;;84.73;48.87;;;3.40;99.90;;;;;;5019463;28;20246;-90
2021/11/22 00:41:25;;;;;;;90.87;51.63;;;3.50;99.90;;;;;;5020310;28;20222;-91
2021/11/22 00:43:53;;;;;;;97.28;52.45;;;3.40;99.90;;;;;;5024436;28;20185;-90
2021/11/22 00:46:19;;;;;;;88.78;50.25;;;3.40;99.90;;;;;;5040992;28;20205;-88
2021/11/22 00:48:44;;;;;;;81.30;46.83;;;3.40;99.90;;;;;;5019697;28;20174;-90
2021/11/22 00:51:10;;;;;;;96.80;49.80;;;3.40;99.90;;;;;;5019614;28;20687;-90
2021/11/22 00:53:36;;;;;;;86.43;46.47;;;3.40;99.90;;;;;;5019545;28;20266;-91
2021/11/22 00:56:02;;;;;;;78.23;47.40;;;3.40;99.90;;;;;;5019652;28;20583;-90
2021/11/22 00:58:27;;;;;;;103.40;51.72;;;3.40;99.90;;;;;;5020100;28;20614;-90
2021/11/22 01:00:53;;;;;;;102.03;54.17;;;3.40;99.90;;;;;;5024067;28;20182;-89
2021/11/22 01:03:19;;;;;;;110.53;54.37;;;3.40;99.90;;;;;;5024854;28;20181;-90
2021/11/22 01:05:44;;;;;;;103.10;54.40;;;3.40;99.90;;;;;;5019346;28;20212;-90
2021/11/22 01:08:10;;;;;;;105.07;55.47;;;3.40;99.90;;;;;;5019069;28;20199;-91
2021/11/22 01:10:39;;;;;;;119.70;56.07;;;3.40;99.90;;;;;;5036988;28;20221;-90
2021/11/22 01:13:06;;;;;;;115.72;55.15;;;3.40;99.90;;;;;;5019368;28;20202;-90
2021/11/22 01:15:33;;;;;;;99.13;53.85;;;3.40;99.90;;;;;;5019131;28;20189;-90
2021/11/22 01:17:59;;;;;;;105.57;54.45;;;3.30;99.90;;;;;;5036220;28;20226;-90
2021/11/22 01:20:30;;;;;;;107.70;53.17;;;3.40;99.90;;;;;;5019172;28;20273;-90
2021/11/22 01:22:59;;;;;;;106.22;57.85;;;3.40;99.90;;;;;;5018793;28;20203;-90
2021/11/22 01:25:25;;;;;;;106.50;53.88;;;3.30;99.90;;;;;;5036710;28;20185;-90
2021/11/22 01:27:51;;;;;;;106.10;55.30;;;3.30;99.90;;;;;;5018589;28;20199;-90
2021/11/22 01:30:18;;;;;;;101.18;54.90;;;3.30;99.90;;;;;;5037617;28;20234;-90
2021/11/22 01:32:45;;;;;;;116.88;56.28;;;3.30;99.90;;;;;;5019094;28;20202;-90
2021/11/22 01:35:12;;;;;;;92.63;52.35;;;3.30;99.90;;;;;;5022741;28;20245;-90
2021/11/22 01:37:38;;;;;;;90.13;52.33;;;3.20;99.90;;;;;;5048981;28;20277;-89
2021/11/22 01:40:06;;;;;;;87.15;50.05;;;3.10;99.90;;;;;;5018965;28;20181;-90
2021/11/22 01:42:32;;;;;;;72.78;43.60;;;3.10;99.90;;;;;;5037121;28;20202;-90
2021/11/22 01:44:57;;;;;;;74.93;42.23;;;3.00;99.90;;;;;;5021677;28;20654;-89
2021/11/22 01:47:23;;;;;;;66.07;40.80;;;3.00;99.90;;;;;;5018889;28;20944;-89
2021/11/22 01:49:49;;;;;;;69.47;40.00;;;3.00;99.90;;;;;;5018993;28;20232;-90
2021/11/22 01:52:14;;;;;;;63.33;38.13;;;2.90;99.90;;;;;;5019598;28;20663;-90
2021/11/22 01:54:40;;;;;;;63.10;40.90;;;2.90;99.90;;;;;;5036369;28;21203;-89
2021/11/22 01:57:06;;;;;;;66.70;42.57;;;2.80;99.90;;;;;;5018798;28;20591;-90
2021/11/22 01:59:31;;;;;;;64.33;40.80;;;2.80;99.90;;;;;;5018553;28;20650;-90
2021/11/22 02:01:58;;;;;;;70.80;40.10;;;2.70;99.90;;;;;;5018167;28;20398;-90
2021/11/22 02:04:24;;;;;;;64.35;39.70;;;2.70;99.90;;;;;;5035957;28;20217;-90
2021/11/22 02:06:49;;;;;;;72.47;41.77;;;2.70;99.90;;;;;;5018241;28;20207;-90
2021/11/22 02:09:15;;;;;;;67.80;39.50;;;2.70;99.90;;;;;;5044273;28;20210;-90
2021/11/22 02:11:41;;;;;;;70.43;40.37;;;2.60;99.90;;;;;;5024213;28;20206;-90
2021/11/22 02:14:07;;;;;;;64.25;39.15;;;2.60;99.90;;;;;;5018196;28;20395;-90
2021/11/22 02:16:34;;;;;;;71.97;39.93;;;2.60;99.90;;;;;;5017922;28;20205;-90
2021/11/22 02:19:02;;;;;;;61.35;38.65;;;2.50;99.90;;;;;;5017688;28;20843;-89
2021/11/22 02:21:28;;;;;;;65.50;41.08;;;2.50;99.90;;;;;;5035823;28;20199;-90
2021/11/22 02:23:54;;;;;;;73.37;42.13;;;2.40;99.90;;;;;;5042504;28;20171;-89
2021/11/22 02:26:20;;;;;;;82.00;43.80;;;2.40;99.90;;;;;;5036983;28;20422;-90
2021/11/22 02:28:46;;;;;;;96.50;51.30;;;2.30;99.90;;;;;;5017784;28;20174;-90
2021/11/22 02:31:12;;;;;;;88.73;48.43;;;2.30;99.90;;;;;;5017387;28;20450;-89
2021/11/22 02:33:38;;;;;;;83.13;45.70;;;2.20;99.90;;;;;;5035301;28;20918;-89
2021/11/22 02:36:04;;;;;;;76.67;44.80;;;2.20;99.90;;;;;;5036939;28;20234;-89
2021/11/22 02:38:35;;;;;;;78.00;44.17;;;2.20;99.90;;;;;;5027742;28;20648;-90
2021/11/22 02:41:02;;;;;;;76.22;44.80;;;2.20;99.90;;;;;;5016554;28;20419;-90
2021/11/22 02:43:31;;;;;;;72.72;42.78;;;2.20;99.90;;;;;;5034977;28;20186;-90
2021/11/22 02:45:57;;;;;;;78.18;43.28;;;2.20;99.90;;;;;;5017507;28;20663;-90
2021/11/22 02:48:23;;;;;;;80.25;43.80;;;2.20;99.90;;;;;;5017340;28;20185;-90
2021/11/22 02:50:49;;;;;;;72.30;41.17;;;2.20;99.90;;;;;;5035507;28;20206;-90
2021/11/22 02:53:15;;;;;;;71.35;41.10;;;2.20;99.90;;;;;;5034916;28;20179;-88
2021/11/22 02:55:41;;;;;;;69.23;39.33;;;2.30;99.90;;;;;;5035244;28;20179;-90
2021/11/22 02:58:07;;;;;;;61.25;38.20;;;2.30;99.90;;;;;;5017473;28;20226;-90
2021/11/22 03:00:36;;;;;;;66.87;39.30;;;2.30;99.90;;;;;;5017206;28;20174;-89
2021/11/22 03:03:02;;;;;;;68.28;37.05;;;2.30;99.90;;;;;;5034792;28;20446;-90
2021/11/22 03:05:28;;;;;;;58.90;35.70;;;2.20;99.90;;;;;;5018058;28;20180;-90
2021/11/22 03:07:55;;;;;;;63.15;36.13;;;2.20;99.90;;;;;;5017157;28;20575;-90
2021/11/22 03:10:23;;;;;;;57.88;36.65;;;2.20;99.90;;;;;;5034800;28;20217;-90
2021/11/22 03:12:49;;;;;;;57.35;34.20;;;2.20;99.90;;;;;;5017314;28;20274;-90
2021/11/22 03:15:17;;;;;;;72.93;38.97;;;2.20;99.90;;;;;;5017458;28;20273;-90
2021/11/22 03:17:43;;;;;;;55.17;34.55;;;2.20;99.90;;;;;;5019606;28;20612;-89
2021/11/22 03:20:14;;;;;;;54.63;34.45;;;2.20;99.90;;;;;;5022087;28;20190;-89
2021/11/22 03:22:41;;;;;;;60.88;35.17;;;2.20;99.90;;;;;;5016857;28;20581;-90
2021/11/22 03:25:09;;;;;;;55.90;36.95;;;2.30;99.90;;;;;;5017419;28;20637;-89
2021/11/22 03:27:35;;;;;;;54.53;32.70;;;2.20;99.90;;;;;;5017446;28;20202;-90
2021/11/22 03:30:02;;;;;;;54.83;34.22;;;2.20;99.90;;;;;;5016990;28;20276;-89
2021/11/22 03:32:28;;;;;;;59.25;33.38;;;2.20;99.90;;;;;;5016701;28;20202;-90
2021/11/22 03:34:55;;;;;;;50.60;33.67;;;2.20;99.90;;;;;;5020945;28;20169;-88
2021/11/22 03:37:20;;;;;;;52.63;32.97;;;2.20;99.90;;;;;;5019290;28;20671;-90
2021/11/22 03:39:50;;;;;;;55.43;32.80;;;2.20;99.90;;;;;;5035679;28;20179;-88
2021/11/22 03:42:17;;;;;;;54.45;34.30;;;2.20;99.90;;;;;;5023270;28;20222;-89
2021/11/22 03:44:44;;;;;;;55.63;34.30;;;2.30;99.90;;;;;;5034551;28;20175;-90
2021/11/22 03:47:10;;;;;;;60.70;33.35;;;2.30;99.90;;;;;;5034709;28;20197;-90
2021/11/22 03:49:36;;;;;;;50.13;32.83;;;2.30;99.90;;;;;;5017266;28;20263;-90
2021/11/22 03:52:03;;;;;;;48.67;33.57;;;2.30;99.90;;;;;;5036586;28;20265;-89
2021/11/22 03:54:29;;;;;;;52.03;32.65;;;2.30;99.90;;;;;;5023635;28;20202;-90
2021/11/22 03:56:55;;;;;;;51.97;31.37;;;2.30;99.90;;;;;;5050383;28;20227;-90
2021/11/22 03:59:21;;;;;;;51.50;32.60;;;2.30;99.90;;;;;;5020357;28;20443;-89
2021/11/22 04:01:47;;;;;;;53.00;34.03;;;2.40;99.90;;;;;;5020232;28;20237;-90
2021/11/22 04:04:13;;;;;;;49.60;32.00;;;2.40;99.90;;;;;;5020463;28;20489;-89
2021/11/22 04:06:38;;;;;;;57.57;33.80;;;2.40;99.90;;;;;;5020153;28;20260;-89
2021/11/22 04:09:05;;;;;;;49.40;30.90;;;2.40;99.90;;;;;;5020722;28;20483;-90
2021/11/22 04:11:34;;;;;;;55.10;35.22;;;2.40;99.90;;;;;;5020085;28;20468;-89
2021/11/22 04:14:00;;;;;;;64.40;37.20;;;2.40;99.90;;;;;;5037972;28;20206;-89
2021/11/22 04:16:26;;;;;;;51.75;33.38;;;2.40;99.90;;;;;;5020155;28;20198;-90
2021/11/22 04:18:52;;;;;;;48.33;33.70;;;2.40;99.90;;;;;;5037788;28;20313;-89
2021/11/22 04:21:20;;;;;;;53.07;33.40;;;2.40;99.90;;;;;;5020143;28;20202;-90
2021/11/22 04:23:46;;;;;;;56.20;32.58;;;2.40;99.90;;;;;;5038447;28;20655;-89
2021/11/22 04:26:12;;;;;;;51.13;32.50;;;2.30;99.90;;;;;;5028947;28;20676;-89
2021/11/22 04:28:39;;;;;;;42.95;30.38;;;2.30;99.90;;;;;;5019838;28;20179;-89
2021/11/22 04:31:06;;;;;;;56.15;34.13;;;2.30;99.90;;;;;;5019792;28;20222;-89
2021/11/22 04:33:32;;;;;;;59.72;34.42;;;2.30;99.90;;;;;;5019805;28;20190;-89
2021/11/22 04:35:58;;;;;;;57.57;34.63;;;2.20;99.90;;;;;;5019615;28;20178;-89
2021/11/22 04:38:23;;;;;;;55.80;32.47;;;2.20;99.90;;;;;;5020264;28;20655;-90
2021/11/22 04:40:49;;;;;;;44.57;30.50;;;2.20;99.90;;;;;;5037689;28;20473;-89
2021/11/22 04:43:15;;;;;;;52.70;30.47;;;2.20;99.90;;;;;;5019789;28;20277;-90
2021/11/22 04:45:41;;;;;;;46.60;28.40;;;2.20;99.90;;;;;;5037591;28;20179;-90
2021/11/22 04:48:06;;;;;;;47.27;31.00;;;2.20;99.90;;;;;;5019435;28;20281;-89
2021/11/22 04:50:33;;;;;;;46.73;31.03;;;2.20;99.90;;;;;;5020151;28;20478;-90
2021/11/22 04:53:01;;;;;;;49.28;32.10;;;2.20;99.90;;;;;;5037349;28;20406;-89
2021/11/22 04:55:27;;;;;;;47.92;31.50;;;2.20;99.90;;;;;;5019662;28;20178;-90
2021/11/22 04:57:54;;;;;;;50.88;31.63;;;2.20;99.90;;;;;;5019268;28;20201;-89
2021/11/22 05:00:22;;;;;;;49.72;30.52;;;2.20;99.90;;;;;;5037862;28;20170;-90
2021/11/22 05:02:48;;;;;;;46.47;29.27;;;2.20;99.90;;;;;;5022216;28;20615;-89
2021/11/22 05:05:15;;;;;;;45.22;30.40;;;2.20;99.90;;;;;;5034215;28;20158;-89
2021/11/22 05:07:42;;;;;;;50.13;31.63;;;2.20;99.90;;;;;;5034670;28;20203;-90
2021/11/22 05:10:09;;;;;;;54.50;31.98;;;2.20;99.90;;;;;;5037255;28;20268;-90
2021/11/22 05:12:35;;;;;;;49.67;30.33;;;2.30;99.90;;;;;;5018803;28;20206;-89
2021/11/22 05:15:01;;;;;;;55.47;28.77;;;2.30;99.90;;;;;;5018505;28;20268;-89
2021/11/22 05:17:27;;;;;;;44.60;28.17;;;2.30;99.90;;;;;;5018887;28;20683;-90
2021/11/22 05:19:52;;;;;;;49.93;29.70;;;2.30;99.90;;;;;;5055604;28;20631;-89
2021/11/22 05:22:21;;;;;;;46.20;30.23;;;2.30;99.90;;;;;;5036928;28;20924;-89
2021/11/22 05:25:06;;;;;;;41.55;29.20;;;2.30;99.90;;;;;;5054785;28;20405;-90
2021/11/22 05:27:33;;;;;;;40.22;26.65;;;2.30;99.90;;;;;;5037188;28;20405;-89
2021/11/22 05:29:59;;;;;;;51.30;29.40;;;2.30;99.90;;;;;;5037583;28;20225;-89
2021/11/22 05:32:25;;;;;;;46.85;29.35;;;2.40;99.90;;;;;;5039369;28;20202;-90
2021/11/22 05:34:53;;;;;;;55.50;29.57;;;2.40;99.90;;;;;;5061396;28;20181;-90
2021/11/22 05:37:19;;;;;;;49.53;32.20;;;2.40;99.90;;;;;;5044141;28;20397;-89
2021/11/22 05:39:46;;;;;;;56.22;29.88;;;2.40;99.90;;;;;;5044988;28;20192;-90
2021/11/22 05:42:12;;;;;;;53.53;30.95;;;2.40;99.90;;;;;;5037416;28;20206;-89
2021/11/22 05:44:38;;;;;;;58.60;32.28;;;2.40;99.90;;;;;;5055173;28;20178;-89
2021/11/22 05:47:07;;;;;;;48.97;28.07;;;2.40;99.90;;;;;;5055573;28;20557;-90
2021/11/22 05:49:35;;;;;;;51.40;30.38;;;2.40;99.90;;;;;;5040162;28;20516;-88
2021/11/22 05:52:02;;;;;;;44.72;28.55;;;2.40;99.90;;;;;;5037323;28;20198;-90
2021/11/22 05:54:31;;;;;;;48.22;27.50;;;2.40;99.90;;;;;;5052602;28;20538;-90
2021/11/22 05:56:58;;;;;;;47.42;30.17;;;2.40;99.90;;;;;;5034780;28;20198;-89
2021/11/22 05:59:25;;;;;;;46.13;29.38;;;2.40;99.90;;;;;;5056616;28;20261;-89
2021/11/22 06:01:51;;;;;;;52.22;31.63;;;2.40;99.90;;;;;;5054857;28;20225;-90
2021/11/22 06:04:17;;;;;;;44.08;28.08;;;2.40;99.90;;;;;;5033646;28;20192;-90
2021/11/22 06:06:42;;;;;;;47.63;30.90;;;2.40;99.90;;;;;;5027685;28;20201;-90
2021/11/22 06:09:08;;;;;;;45.30;29.00;;;2.40;99.90;;;;;;5054845;28;20886;-90
2021/11/22 06:11:33;;;;;;;43.23;28.90;;;2.40;99.90;;;;;;5040194;28;20200;-89
2021/11/22 06:13:59;;;;;;;40.87;27.00;;;2.40;99.90;;;;;;5055395;28;20655;-89
2021/11/22 06:16:25;;;;;;;46.63;28.30;;;2.40;99.90;;;;;;5054565;28;20698;-89
2021/11/22 06:18:50;;;;;;;43.87;29.60;;;2.40;99.90;;;;;;5036888;28;20221;-90
2021/11/22 06:21:16;;;;;;;43.43;28.83;;;2.40;99.90;;;;;;5050968;28;20537;-89
2021/11/22 06:23:42;;;;;;;40.03;27.03;;;2.40;99.90;;;;;;5017508;28;20266;-89
2021/11/22 06:26:07;;;;;;;47.73;27.33;;;2.40;99.90;;;;;;5034279;28;20531;-90
2021/11/22 06:28:33;;;;;;;46.73;28.70;;;2.40;99.90;;;;;;5054441;28;20201;-88
2021/11/22 06:30:59;;;;;;;45.37;28.87;;;2.40;99.90;;;;;;5025605;28;20206;-89
2021/11/22 06:33:25;;;;;;;44.42;29.55;;;2.40;99.90;;;;;;5032106;28;20186;-89
2021/11/22 06:35:51;;;;;;;39.50;28.00;;;2.40;99.90;;;;;;5038001;28;20636;-90
2021/11/22 06:38:18;;;;;;;44.13;28.13;;;2.40;99.90;;;;;;5045189;28;20221;-87
2021/11/22 06:40:44;;;;;;;44.45;29.52;;;2.40;99.90;;;;;;5023461;28;20522;-90
2021/11/22 06:43:11;;;;;;;42.60;27.45;;;2.40;99.90;;;;;;5024722;28;20637;-89
2021/11/22 06:45:37;;;;;;;40.30;26.00;;;2.40;99.90;;;;;;5044997;28;20217;-89
2021/11/22 06:48:03;;;;;;;43.83;29.20;;;2.50;99.90;;;;;;5029273;28;20202;-89
2021/11/22 06:50:29;;;;;;;48.75;28.60;;;2.50;99.90;;;;;;5032832;28;20237;-90
2021/11/22 06:52:55;;;;;;;40.60;27.40;;;2.50;99.90;;;;;;5035336;28;20206;-90
2021/11/22 06:55:20;;;;;;;42.13;29.23;;;2.50;99.90;;;;;;5033100;28;20950;-90
2021/11/22 06:57:49;;;;;;;39.23;24.90;;;2.50;99.90;;;;;;5033419;28;20247;-89
2021/11/22 07:00:17;;;;;;;40.60;27.05;;;2.60;99.90;;;;;;5050464;28;20432;-88
2021/11/22 07:02:50;;;;;;;41.55;25.85;;;2.60;99.90;;;;;;5028995;28;20297;-90
2021/11/22 07:05:17;;;;;;;46.05;26.20;;;2.60;99.90;;;;;;5020445;28;20252;-90
2021/11/22 07:07:42;;;;;;;41.70;27.15;;;2.70;99.90;;;;;;5026077;28;20264;-90
2021/11/22 07:10:08;;;;;;;40.90;27.20;;;2.80;99.90;;;;;;5048214;28;20214;-90
2021/11/22 07:12:34;;;;;;;46.03;28.30;;;2.90;99.90;;;;;;5023165;28;20202;-90
2021/11/22 07:15:01;;;;;;;39.33;27.15;;;3.00;99.90;;;;;;5037871;28;20199;-90
2021/11/22 07:17:26;;;;;;;41.75;28.60;;;2.90;99.90;;;;;;5031424;28;20666;-90
2021/11/22 07:19:53;;;;;;;38.07;26.80;;;2.90;99.90;;;;;;5033477;28;20281;-91
2021/11/22 07:22:19;;;;;;;42.40;28.20;;;2.90;99.90;;;;;;5029469;28;20234;-90
2021/11/22 07:24:46;;;;;;;44.80;26.53;;;2.90;99.90;;;;;;5029705;28;20221;-89
2021/11/22 07:27:12;;;;;;;39.72;26.77;;;2.90;99.90;;;;;;5027323;28;20213;-89
2021/11/22 07:29:41;;;;;;;41.17;28.23;;;2.90;99.90;;;;;;5036175;28;20233;-90
2021/11/22 07:32:07;;;;;;;42.63;27.08;;;2.90;99.90;;;;;;5043733;28;20193;-90
2021/11/22 07:34:33;;;;;;;43.97;26.90;;;3.00;99.90;;;;;;5044270;28;20178;-90
2021/11/22 07:36:59;;;;;;;37.30;26.17;;;3.00;99.90;;;;;;5046218;28;20223;-90
2021/11/22 07:39:25;;;;;;;40.73;28.57;;;3.00;99.90;;;;;;5028987;28;20666;-91
2021/11/22 07:41:53;;;;;;;41.63;27.38;;;3.10;99.90;;;;;;5028249;28;20417;-91
2021/11/22 07:44:19;;;;;;;42.78;29.33;;;3.10;99.90;;;;;;5026761;28;20186;-90
2021/11/22 07:46:45;;;;;;;41.97;27.37;;;3.20;99.90;;;;;;5036757;28;20201;-90
2021/11/22 07:49:10;;;;;;;48.17;31.60;;;3.30;99.90;;;;;;5022427;28;20237;-91
2021/11/22 07:51:38;;;;;;;43.73;28.60;;;3.30;99.90;;;;;;5051758;28;20417;-91
2021/11/22 07:54:04;;;;;;;44.90;29.38;;;3.40;99.90;;;;;;5031430;28;20207;-91
2021/11/22 07:56:30;;;;;;;39.20;28.00;;;3.50;99.90;;;;;;5032039;28;20202;-91
2021/11/22 07:58:56;;;;;;;45.13;27.73;;;3.50;99.90;;;;;;5033733;28;20204;-91
2021/11/22 08:01:21;;;;;;;42.20;28.13;;;3.50;99.90;;;;;;5052744;28;20198;-89
2021/11/22 08:03:47;;;;;;;39.20;25.47;;;3.50;99.90;;;;;;5046542;28;20232;-92
2021/11/22 08:06:13;;;;;;;44.30;27.93;;;3.60;99.90;;;;;;5033383;28;20685;-91
2021/11/22 08:08:40;;;;;;;46.00;29.87;;;3.70;99.90;;;;;;5023948;28;20182;-90
2021/11/22 08:13:33;;;;;;;56.95;29.70;;;3.80;99.90;;;;;;5049932;28;20288;-89
2021/11/22 08:16:01;;;;;;;46.58;27.52;;;3.90;99.90;;;;;;5020563;28;20197;-91
2021/11/22 08:18:27;;;;;;;46.63;27.52;;;3.90;99.90;;;;;;5040637;28;20226;-92
2021/11/22 08:20:55;;;;;;;43.10;27.58;;;4.00;99.90;;;;;;5027457;28;20575;-91
2021/11/22 08:23:20;;;;;;;53.20;30.70;;;4.00;99.90;;;;;;5042605;28;20277;-90
2021/11/22 08:25:46;;;;;;;49.50;26.83;;;4.00;99.90;;;;;;5041799;28;20388;-91
2021/11/22 08:28:12;;;;;;;40.23;26.17;;;4.10;99.90;;;;;;5036638;28;20205;-92
2021/11/22 08:30:38;;;;;;;39.67;26.17;;;4.10;99.90;;;;;;5055361;28;20633;-91
2021/11/22 08:33:04;;;;;;;41.15;26.83;;;4.20;99.90;;;;;;5049079;28;20227;-91
2021/11/22 08:35:31;;;;;;;46.33;28.92;;;4.20;99.90;;;;;;5040835;28;20613;-91
2021/11/22 08:37:58;;;;;;;40.30;27.05;;;4.30;99.90;;;;;;5027527;28;20198;-91
2021/11/22 08:40:25;;;;;;;42.33;28.17;;;4.40;99.90;;;;;;5047120;28;20221;-91
2021/11/22 08:42:55;;;;;;;51.05;30.98;;;4.50;99.90;;;;;;5028645;28;20198;-90
2021/11/22 08:45:22;;;;;;;43.03;28.40;;;4.50;99.90;;;;;;5039628;28;20194;-90
2021/11/22 08:47:47;;;;;;;46.38;26.88;;;4.60;99.90;;;;;;5033577;28;20201;-92
2021/11/22 08:50:14;;;;;;;40.33;26.37;;;4.70;99.90;;;;;;5046535;28;20301;-91
2021/11/22 08:52:41;;;;;;;43.25;26.80;;;4.70;99.90;;;;;;5047106;28;20430;-91
2021/11/22 08:55:07;;;;;;;40.00;25.83;;;4.80;99.90;;;;;;5029453;28;20190;-91
2021/11/22 08:57:34;;;;;;;48.70;26.35;;;4.80;99.90;;;;;;5028183;28;20197;-91
2021/11/22 09:00:02;;;;;;;41.30;24.90;;;4.90;99.90;;;;;;5056270;28;20231;-91
2021/11/22 09:02:28;;;;;;;35.38;22.75;;;5.00;99.90;;;;;;5039218;28;20194;-91
2021/11/22 09:04:53;;;;;;;40.47;25.70;;;5.00;99.90;;;;;;5029130;28;20196;-91
2021/11/22 09:07:19;;;;;;;42.43;27.47;;;5.10;99.90;;;;;;5051318;28;20257;-91
2021/11/22 09:09:45;;;;;;;38.27;24.60;;;5.10;99.90;;;;;;5027595;28;20217;-92
2021/11/22 09:12:11;;;;;;;37.05;24.60;;;5.20;99.90;;;;;;5033166;28;20230;-92
2021/11/22 09:14:38;;;;;;;40.13;25.03;;;5.30;99.90;;;;;;5040476;28;20186;-92
2021/11/22 09:17:04;;;;;;;36.95;25.17;;;5.30;99.90;;;;;;5049957;28;20929;-91
2021/11/22 09:19:30;;;;;;;42.00;26.00;;;5.40;99.90;;;;;;5027768;28;20231;-91
2021/11/22 09:21:57;;;;;;;38.50;25.15;;;5.50;99.90;;;;;;5023329;28;20201;-92
2021/11/22 09:24:22;;;;;;;39.53;26.80;;;5.50;99.90;;;;;;5025691;28;20182;-90
2021/11/22 09:26:48;;;;;;;35.73;23.33;;;5.60;99.90;;;;;;5030679;28;20214;-91
2021/11/22 09:29:14;;;;;;;36.00;25.23;;;5.60;99.90;;;;;;5025035;28;20295;-91
2021/11/22 09:31:40;;;;;;;48.60;27.43;;;5.70;99.90;;;;;;5026162;28;20194;-92
2021/11/22 09:34:06;;;;;;;36.35;25.10;;;5.70;99.90;;;;;;5031477;28;20414;-91
2021/11/22 09:36:32;;;;;;;46.15;28.20;;;5.70;99.90;;;;;;5028581;28;20190;-90
2021/11/22 09:38:59;;;;;;;43.60;27.57;;;5.80;99.90;;;;;;5032997;28;20232;-91
2021/11/22 09:41:27;;;;;;;42.78;26.35;;;5.80;99.90;;;;;;5028193;28;20419;-91
2021/11/22 09:43:55;;;;;;;36.45;25.02;;;5.90;99.90;;;;;;5033405;28;20210;-91
2021/11/22 09:46:21;;;;;;;37.03;25.08;;;5.90;99.90;;;;;;5029174;28;20238;-91
2021/11/22 09:48:47;;;;;;;37.75;25.35;;;5.90;99.90;;;;;;5034715;28;20247;-91
2021/11/22 09:51:13;;;;;;;36.73;26.07;;;5.90;99.90;;;;;;5042525;28;20564;-91
2021/11/22 09:53:40;;;;;;;40.75;26.77;;;5.90;99.90;;;;;;5032807;28;20407;-91
2021/11/22 09:56:06;;;;;;;43.00;26.27;;;6.00;99.90;;;;;;5036400;28;20194;-90
2021/11/22 09:58:32;;;;;;;38.83;26.40;;;6.00;99.90;;;;;;5023147;28;20191;-91
2021/11/22 10:01:04;;;;;;;42.03;25.70;;;6.00;99.90;;;;;;5018546;28;20497;-91
2021/11/22 10:03:30;;;;;;;43.00;27.80;;;6.00;99.90;;;;;;5025731;28;20442;-91
2021/11/22 10:05:58;;;;;;;44.27;27.97;;;6.00;99.90;;;;;;5026956;28;20285;-92
2021/11/22 10:08:24;;;;;;;42.65;27.75;;;6.00;99.90;;;;;;5021891;28;20306;-92
2021/11/22 10:10:54;;;;;;;40.38;26.77;;;6.00;99.90;;;;;;5021037;28;20243;-91
2021/11/22 10:13:37;;;;;;;43.17;25.52;;;6.00;99.90;;;;;;5019620;28;20236;-92
2021/11/22 10:16:12;;;;;;;38.35;25.40;;;6.00;99.90;;;;;;5024713;28;21081;-92
2021/11/22 10:18:56;;;;;;;42.72;26.13;;;6.00;99.90;;;;;;5029417;28;20217;-91
2021/11/22 10:21:31;;;;;;;44.38;27.52;;;6.10;99.90;;;;;;5037795;28;20194;-91
2021/11/22 10:24:03;;;;;;;44.70;28.60;;;6.10;99.90;;;;;;5028982;28;20238;-92
2021/11/22 10:26:50;;;;;;;43.78;27.98;;;6.10;99.90;;;;;;5022144;28;20209;-92
2021/11/22 10:29:29;;;;;;;48.38;31.02;;;6.20;99.90;;;;;;5040949;28;20400;-92
2021/11/22 10:31:58;;;;;;;45.80;28.77;;;6.20;99.90;;;;;;5036322;28;20206;-92
2021/11/22 10:34:24;;;;;;;46.95;29.58;;;6.20;99.90;;;;;;5027078;28;20183;-92
2021/11/22 10:37:00;;;;;;;50.40;31.38;;;6.20;99.90;;;;;;5041710;28;20220;-92
2021/11/22 10:39:27;;;;;;;51.05;31.75;;;6.20;99.90;;;;;;5033889;28;20727;-92
2021/11/22 10:41:52;;;;;;;48.33;30.83;;;6.20;99.90;;;;;;5039928;28;20214;-91
2021/11/22 10:44:18;;;;;;;50.37;29.07;;;6.30;99.90;;;;;;5031576;28;20189;-92
2021/11/22 10:46:50;;;;;;;43.90;28.60;;;6.30;99.90;;;;;;5032910;28;20566;-92
2021/11/22 10:49:32;;;;;;;47.58;29.80;;;6.30;99.90;;;;;;5033505;28;20198;-92
2021/11/22 10:52:16;;;;;;;45.97;28.92;;;6.30;99.90;;;;;;5023173;28;20237;-92
2021/11/22 10:55:00;;;;;;;43.97;28.98;;;6.40;99.90;;;;;;5031481;28;20197;-91
2021/11/22 10:57:52;;;;;;;49.83;28.77;;;6.40;99.90;;;;;;5051543;28;20208;-91
2021/11/22 11:00:17;;;;;;;43.35;29.58;;;6.40;99.90;;;;;;5045002;28;20260;-91
2021/11/22 11:02:44;;;;;;;48.43;29.60;;;6.40;99.90;;;;;;5026142;28;20205;-92
2021/11/22 11:05:24;;;;;;;45.92;30.92;;;6.40;99.90;;;;;;5021065;28;20177;-91
2021/11/22 11:08:07;;;;;;;51.92;32.00;;;6.40;99.90;;;;;;5029770;28;20202;-91
2021/11/22 11:10:34;;;;;;;61.47;33.63;;;6.50;99.90;;;;;;5026506;28;20214;-90
2021/11/22 11:13:01;;;;;;;54.42;33.70;;;6.50;99.90;;;;;;5031881;28;20193;-91
2021/11/22 11:15:27;;;;;;;50.88;33.08;;;6.50;99.90;;;;;;5049136;28;20190;-92
2021/11/22 11:17:53;;;;;;;53.53;33.25;;;6.50;99.90;;;;;;5023420;28;20615;-91
2021/11/22 11:20:20;;;;;;;47.22;30.77;;;6.50;99.90;;;;;;5028091;28;20189;-91
2021/11/22 11:22:48;;;;;;;48.30;30.75;;;6.60;99.90;;;;;;5053369;28;20197;-90
2021/11/22 11:25:18;;;;;;;45.80;30.45;;;6.50;99.90;;;;;;5023559;28;20680;-92
2021/11/22 11:27:45;;;;;;;39.42;27.77;;;6.60;99.90;;;;;;5039813;28;20561;-91
2021/11/22 11:30:15;;;;;;;44.80;28.98;;;6.50;99.90;;;;;;5021513;28;20308;-92
2021/11/22 11:32:42;;;;;;;44.28;27.83;;;6.60;99.90;;;;;;5023264;28;20205;-91
2021/11/22 11:35:18;;;;;;;41.92;26.55;;;6.60;99.90;;;;;;5035357;28;20182;-91
2021/11/22 11:38:14;;;;;;;39.35;26.42;;;6.60;99.90;;;;;;5028267;28;20765;-92
2021/11/22 11:41:04;;;;;;;41.15;27.20;;;6.60;99.90;;;;;;5028565;28;20222;-91
2021/11/22 11:43:41;;;;;;;42.65;24.85;;;6.60;99.90;;;;;;5039425;28;20182;-92
2021/11/22 11:46:18;;;;;;;44.05;27.58;;;6.70;99.90;;;;;;5042161;28;20460;-92
2021/11/22 11:49:05;;;;;;;43.55;26.13;;;6.70;99.90;;;;;;5029944;28;20189;-92
2021/11/22 11:51:40;;;;;;;45.25;27.65;;;6.70;99.90;;;;;;5042738;28;20699;-92
2021/11/22 11:54:10;;;;;;;43.58;27.83;;;6.80;99.90;;;;;;5021702;28;20261;-89
2021/11/22 11:56:54;;;;;;;41.50;25.52;;;6.80;99.90;;;;;;5022080;28;20286;-90
2021/11/22 11:59:37;;;;;;;47.45;27.20;;;6.80;99.90;;;;;;5036051;28;20209;-88
2021/11/22 12:02:08;;;;;;;41.28;26.08;;;6.80;99.90;;;;;;5029147;28;20229;-92
2021/11/22 12:05:19;;;;;;;48.75;27.35;;;6.90;99.90;;;;;;5041551;28;20186;-91
2021/11/22 12:07:48;;;;;;;47.97;29.13;;;6.80;99.90;;;;;;5035561;28;20440;-90
2021/11/22 12:10:22;;;;;;;42.28;27.17;;;6.80;99.90;;;;;;5032256;28;20214;-88
2021/11/22 12:12:52;;;;;;;46.22;29.55;;;6.90;99.90;;;;;;5025781;28;20194;-89
2021/11/22 12:15:36;;;;;;;45.03;26.83;;;6.80;99.90;;;;;;5048039;28;20200;-90
2021/11/22 12:18:29;;;;;;;44.20;26.67;;;6.90;99.90;;;;;;5023863;28;20247;-89
2021/11/22 12:21:04;;;;;;;40.22;25.75;;;6.90;99.90;;;;;;5037299;28;20224;-90
2021/11/22 12:23:52;;;;;;;42.72;25.70;;;6.90;99.90;;;;;;5031225;28;20220;-91
2021/11/22 12:26:30;;;;;;;41.85;26.73;;;6.90;99.90;;;;;;5043616;28;20210;-90
2021/11/22 12:28:57;;;;;;;39.30;25.73;;;6.90;99.90;;;;;;5043466;28;20407;-89
2021/11/22 12:31:26;;;;;;;46.30;27.63;;;7.00;99.90;;;;;;5031385;28;20232;-90
2021/11/22 12:34:10;;;;;;;44.88;26.90;;;6.90;99.90;;;;;;5027295;28;20221;-90
2021/11/22 12:36:47;;;;;;;54.10;30.38;;;7.00;99.90;;;;;;5051501;28;20296;-89
2021/11/22 12:39:17;;;;;;;47.53;29.65;;;7.00;99.90;;;;;;5028935;28;20194;-89
2021/11/22 12:41:44;;;;;;;48.38;32.10;;;7.00;99.90;;;;;;5047407;28;20670;-90